TimeEET,TemperatureF,Dew PointF,Humidity,Sea Level PressureIn,VisibilityMPH,Wind Direction,Wind SpeedMPH,Gust SpeedMPH,PrecipitationIn,Events,Conditions,WindDirDegrees,DateUTC
12:20 AM,44.6,39.2,81,30.01,6.2,ESE,4.6,-,N/A,,Partly Cloudy,120,2013-03-01 22:20:00
12:50 AM,44.6,39.2,81,30.01,6.2,Calm,Calm,-,N/A,,Partly Cloudy,0,2013-03-01 22:50:00
1:20 AM,44.6,39.2,81,30.01,6.2,Calm,Calm,-,N/A,,Partly Cloudy,0,2013-03-01 23:20:00
1:50 AM,42.8,39.2,87,30.01,6.2,Calm,Calm,-,N/A,,Partly Cloudy,0,2013-03-01 23:50:00
2:00 AM,44,39,77,30.01,6,Calm,Calm,,,,Scattered Clouds,,2013-03-02 00:00:00
2:20 AM,44.6,39.2,81,30.01,6.2,Calm,Calm,-,N/A,,Partly Cloudy,0,2013-03-02 00:20:00
2:50 AM,44.6,39.2,81,29.98,6.2,Calm,Calm,-,N/A,,Partly Cloudy,0,2013-03-02 00:50:00
3:20 AM,44.6,39.2,81,29.98,6.2,Calm,Calm,-,N/A,,Partly Cloudy,0,2013-03-02 01:20:00
3:50 AM,44.6,39.2,81,29.95,6.2,Calm,Calm,-,N/A,,Partly Cloudy,0,2013-03-02 01:50:00
4:20 AM,44.6,39.2,81,29.95,6.2,Calm,Calm,-,N/A,,Partly Cloudy,0,2013-03-02 02:20:00
4:50 AM,42.8,39.2,87,29.95,6.2,Calm,Calm,-,N/A,,Partly Cloudy,0,2013-03-02 02:50:00
5:50 AM,44.6,39.2,81,29.95,6.2,Calm,Calm,-,N/A,,Partly Cloudy,0,2013-03-02 03:50:00
6:50 AM,42.8,39.2,87,29.92,6.2,Calm,Calm,-,N/A,,Scattered Clouds,0,2013-03-02 04:50:00
7:50 AM,44.6,41.0,87,29.92,6.2,Calm,Calm,-,N/A,,Mostly Cloudy,0,2013-03-02 05:50:00
8:00 AM,45,41,80,29.93,6,Calm,Calm,,,,Scattered Clouds,,2013-03-02 06:00:00
8:20 AM,44.6,41.0,87,29.92,6.2,Calm,Calm,-,N/A,,Mostly Cloudy,0,2013-03-02 06:20:00
8:50 AM,46.4,41.0,81,29.92,6.2,East,5.8,-,N/A,,Mostly Cloudy,100,2013-03-02 06:50:00
9:20 AM,50.0,44.6,82,29.92,6.2,Calm,Calm,-,N/A,,Mostly Cloudy,0,2013-03-02 07:20:00
9:50 AM,53.6,42.8,67,29.89,6.2,Calm,Calm,-,N/A,,Mostly Cloudy,0,2013-03-02 07:50:00
10:20 AM,55.4,44.6,67,29.89,6.2,Calm,Calm,-,N/A,,Mostly Cloudy,0,2013-03-02 08:20:00
10:50 AM,57.2,44.6,63,29.89,6.2,Calm,Calm,-,N/A,,Mostly Cloudy,0,2013-03-02 08:50:00
11:20 AM,57.2,42.8,59,29.89,6.2,Calm,Calm,-,N/A,,Mostly Cloudy,0,2013-03-02 09:20:00
11:50 AM,59.0,44.6,59,29.86,6.2,Calm,Calm,-,N/A,,Mostly Cloudy,0,2013-03-02 09:50:00
12:20 PM,59.0,44.6,59,29.86,6.2,Calm,Calm,-,N/A,,Mostly Cloudy,0,2013-03-02 10:20:00
12:50 PM,59.0,41.0,51,29.86,6.2,SW,5.8,-,N/A,,Mostly Cloudy,230,2013-03-02 10:50:00
1:20 PM,59.0,41.0,51,29.86,6.2,Calm,Calm,-,N/A,,Mostly Cloudy,0,2013-03-02 11:20:00
1:50 PM,59.0,42.8,55,29.83,6.2,Calm,Calm,-,N/A,,Mostly Cloudy,0,2013-03-02 11:50:00
2:00 PM,60,42,41,29.86,6,Calm,Calm,,,,Scattered Clouds,,2013-03-02 12:00:00
2:20 PM,59.0,42.8,55,29.83,6.2,WSW,4.6,-,N/A,,Mostly Cloudy,240,2013-03-02 12:20:00
2:50 PM,60.8,42.8,52,29.83,6.2,WSW,4.6,-,N/A,,Mostly Cloudy,250,2013-03-02 12:50:00
3:20 PM,59.0,42.8,55,29.83,6.2,WNW,4.6,-,N/A,,Mostly Cloudy,290,2013-03-02 13:20:00
3:50 PM,57.2,44.6,63,29.83,6.2,NNW,5.8,-,N/A,,Mostly Cloudy,330,2013-03-02 13:50:00
4:20 PM,57.2,44.6,63,29.83,6.2,NNW,4.6,-,N/A,,Mostly Cloudy,340,2013-03-02 14:20:00
4:50 PM,57.2,44.6,63,29.83,6.2,North,4.6,-,N/A,,Mostly Cloudy,10,2013-03-02 14:50:00
5:20 PM,57.2,44.6,63,29.80,6.2,NE,5.8,-,N/A,,Mostly Cloudy,50,2013-03-02 15:20:00
5:50 PM,55.4,44.6,67,29.80,6.2,ENE,6.9,-,N/A,,Scattered Clouds,70,2013-03-02 15:50:00
6:20 PM,55.4,44.6,67,29.77,6.2,East,8.1,-,N/A,,Scattered Clouds,80,2013-03-02 16:20:00
6:50 PM,55.4,44.6,67,29.77,6.2,East,6.9,-,N/A,,Mostly Cloudy,100,2013-03-02 16:50:00
7:20 PM,55.4,44.6,67,29.77,6.2,East,6.9,-,N/A,,Mostly Cloudy,90,2013-03-02 17:20:00
7:50 PM,53.6,44.6,72,29.77,6.2,ESE,5.8,-,N/A,,Mostly Cloudy,110,2013-03-02 17:50:00
8:00 PM,54,45,62,29.78,6,ESE,5.8,,,,Partly Cloudy,110,2013-03-02 18:00:00
8:20 PM,53.6,44.6,72,29.74,5.6,ESE,10.4,-,N/A,Rain,Light Rain,110,2013-03-02 18:20:00
8:50 PM,53.6,42.8,67,29.74,6.2,ESE,10.4,-,N/A,,Overcast,110,2013-03-02 18:50:00
9:20 PM,53.6,42.8,67,29.74,6.2,East,4.6,-,N/A,,Overcast,100,2013-03-02 19:20:00
9:50 PM,51.8,46.4,82,29.77,5.6,Calm,Calm,-,N/A,Rain,Light Rain,0,2013-03-02 19:50:00
10:20 PM,50.0,46.4,87,29.80,5.6,Calm,Calm,-,N/A,Rain,Light Rain,0,2013-03-02 20:20:00
10:50 PM,50.0,46.4,87,29.83,5.6,WSW,4.6,-,N/A,Rain,Light Rain,250,2013-03-02 20:50:00
11:20 PM,48.2,46.4,93,29.83,5.6,East,4.6,-,N/A,Rain,Light Rain,80,2013-03-02 21:20:00
11:50 PM,48.2,46.4,93,29.83,5.6,East,11.5,-,N/A,Rain,Light Rain,100,2013-03-02 21:50:00